Time;durP1;ratioP1;P1;durP2;ratioP2;P2;SDS_P1;SDS_P2;PMS_P1;PMS_P2;Temp;Humidity;BMP_temperature;BMP_pressure;BME280_temperature;BME280_humidity;BME280_pressure;Samples;Min_cycle;Max_cycle;Signal;HPM_P1;HPM_P2
2021/09/05 00:00:42;;;;;;;3.90;3.70;;;23.00;60.90;;;;;;5054133;28;20121;-83
2021/09/05 00:03:08;;;;;;;4.10;3.90;;;23.00;61.00;;;;;;5055076;28;20033;-84
2021/09/05 00:05:34;;;;;;;4.65;3.88;;;23.00;61.10;;;;;;5053853;28;20025;-83
2021/09/05 00:08:01;;;;;;;4.40;4.07;;;22.90;61.10;;;;;;5055345;28;20025;-82
2021/09/05 00:10:27;;;;;;;4.18;3.90;;;22.90;61.20;;;;;;5051496;28;20031;-83
2021/09/05 00:12:53;;;;;;;4.30;4.10;;;22.90;61.20;;;;;;5051917;28;20056;-82
2021/09/05 00:15:19;;;;;;;4.18;3.97;;;22.90;61.40;;;;;;5056862;28;20413;-84
2021/09/05 00:17:45;;;;;;;4.55;4.15;;;22.90;61.40;;;;;;5054141;28;20048;-83
2021/09/05 00:20:12;;;;;;;4.15;3.95;;;22.90;61.50;;;;;;5053674;28;20025;-83
2021/09/05 00:22:38;;;;;;;4.47;4.18;;;22.80;61.50;;;;;;5055096;28;20477;-82
2021/09/05 00:25:04;;;;;;;3.97;3.78;;;22.80;61.50;;;;;;5050926;28;20033;-83
2021/09/05 00:27:30;;;;;;;3.97;3.78;;;22.80;61.60;;;;;;5064280;28;20035;-82
2021/09/05 00:29:56;;;;;;;4.30;4.10;;;22.70;61.60;;;;;;5054048;28;20048;-84
2021/09/05 00:32:23;;;;;;;4.18;3.97;;;22.70;61.70;;;;;;5054352;28;20033;-83
2021/09/05 00:34:49;;;;;;;3.88;3.67;;;22.70;61.80;;;;;;5054452;28;20041;-84
2021/09/05 00:37:15;;;;;;;3.92;3.72;;;22.70;61.80;;;;;;5051973;28;20033;-83
2021/09/05 00:39:41;;;;;;;3.83;3.63;;;22.60;61.80;;;;;;5054246;28;20470;-82
2021/09/05 00:42:07;;;;;;;3.83;3.63;;;22.60;61.90;;;;;;5054534;28;20037;-83
2021/09/05 00:44:33;;;;;;;3.78;3.58;;;22.60;61.90;;;;;;5053730;28;20029;-81
2021/09/05 00:46:59;;;;;;;3.83;3.55;;;22.60;62.00;;;;;;5054493;28;20040;-83
2021/09/05 00:49:25;;;;;;;3.92;3.72;;;22.60;62.10;;;;;;5051441;28;20035;-83
2021/09/05 00:51:51;;;;;;;3.78;3.58;;;22.50;62.10;;;;;;5051830;28;20029;-84
2021/09/05 00:54:18;;;;;;;3.88;3.67;;;22.50;62.20;;;;;;5055471;28;20488;-82
2021/09/05 00:56:44;;;;;;;4.22;4.03;;;22.50;62.20;;;;;;5039540;28;20036;-83
2021/09/05 00:59:17;;;;;;;3.63;3.42;;;22.50;62.20;;;;;;5060197;28;20462;-83
2021/09/05 01:01:43;;;;;;;3.45;3.30;;;22.50;62.30;;;;;;5043765;28;20063;-83
2021/09/05 01:04:10;;;;;;;3.70;3.50;;;22.40;62.30;;;;;;5057202;28;20036;-84
2021/09/05 01:06:37;;;;;;;3.65;3.45;;;22.40;62.40;;;;;;5044523;28;20045;-83
2021/09/05 01:09:04;;;;;;;3.78;3.58;;;22.40;62.50;;;;;;5060559;28;20024;-83
2021/09/05 01:11:33;;;;;;;3.65;3.45;;;22.40;62.60;;;;;;5059870;28;20052;-82
2021/09/05 01:14:04;;;;;;;3.78;3.58;;;22.30;62.50;;;;;;5061196;28;20504;-83
2021/09/05 01:16:37;;;;;;;3.72;3.53;;;22.30;62.60;;;;;;5058690;28;20028;-83
2021/09/05 01:19:07;;;;;;;3.53;3.33;;;22.30;62.80;;;;;;5038568;28;20029;-83
2021/09/05 01:21:33;;;;;;;3.75;3.55;;;22.30;62.80;;;;;;5103638;28;20408;-84
2021/09/05 01:24:02;;;;;;;3.72;3.53;;;22.20;62.80;;;;;;5059871;28;20025;-83
2021/09/05 01:26:30;;;;;;;3.83;3.63;;;22.20;63.00;;;;;;5060000;28;20033;-83
2021/09/05 01:28:56;;;;;;;3.50;3.30;;;22.10;63.10;;;;;;5058450;28;20016;-83
2021/09/05 01:31:23;;;;;;;4.75;3.88;;;22.10;63.20;;;;;;5058334;28;20064;-84
2021/09/05 01:33:49;;;;;;;3.63;3.42;;;22.10;63.30;;;;;;5058445;28;20037;-83
2021/09/05 01:36:18;;;;;;;3.90;3.70;;;22.10;63.30;;;;;;5076379;28;20040;-84
2021/09/05 01:38:44;;;;;;;5.63;4.13;;;22.10;63.40;;;;;;5060890;28;20029;-82
2021/09/05 01:41:10;;;;;;;3.90;3.70;;;22.10;63.40;;;;;;5061144;28;20242;-83
2021/09/05 01:43:37;;;;;;;3.92;3.72;;;22.00;63.30;;;;;;5059882;28;20381;-84
2021/09/05 01:46:05;;;;;;;3.80;3.60;;;22.10;63.40;;;;;;5037491;28;20045;-81
2021/09/05 01:48:31;;;;;;;4.07;3.88;;;22.00;63.40;;;;;;5073152;28;20028;-81
2021/09/05 01:50:58;;;;;;;4.40;3.80;;;22.00;63.40;;;;;;5061005;28;20033;-83
2021/09/05 01:53:24;;;;;;;3.67;3.47;;;22.00;63.40;;;;;;5061080;28;20033;-83
2021/09/05 01:55:50;;;;;;;3.78;3.58;;;22.00;63.40;;;;;;5060818;28;20036;-84
2021/09/05 01:58:16;;;;;;;4.05;3.70;;;22.00;63.50;;;;;;5038928;28;20042;-83
2021/09/05 02:00:42;;;;;;;3.97;3.78;;;22.00;63.50;;;;;;5053551;28;20025;-83
2021/09/05 02:03:08;;;;;;;3.78;3.58;;;21.90;63.50;;;;;;5049651;28;20020;-79
2021/09/05 02:05:34;;;;;;;3.85;3.65;;;22.00;64.40;;;;;;5052416;28;20040;-82
2021/09/05 02:08:01;;;;;;;3.90;3.70;;;21.90;63.70;;;;;;5050763;28;20479;-81
2021/09/05 02:10:27;;;;;;;3.60;3.40;;;21.90;64.50;;;;;;5050318;28;20060;-84
2021/09/05 02:12:53;;;;;;;3.55;3.35;;;21.90;63.80;;;;;;5042475;28;20048;-83
2021/09/05 02:15:19;;;;;;;3.30;3.13;;;21.90;63.80;;;;;;5037372;28;20029;-83
2021/09/05 02:17:45;;;;;;;3.00;2.90;;;21.90;63.90;;;;;;5036893;28;20037;-80
2021/09/05 02:20:12;;;;;;;3.40;3.20;;;21.80;63.90;;;;;;5036977;28;20056;-83
2021/09/05 02:22:38;;;;;;;3.75;3.55;;;21.80;64.00;;;;;;5049200;28;20044;-83
2021/09/05 02:25:04;;;;;;;3.30;3.10;;;21.80;64.10;;;;;;5034400;28;20039;-83
2021/09/05 02:27:30;;;;;;;3.42;3.22;;;21.80;64.10;;;;;;5037967;28;20384;-83
2021/09/05 02:29:56;;;;;;;3.10;3.00;;;21.80;64.20;;;;;;5037714;28;20033;-81
2021/09/05 02:32:22;;;;;;;3.05;2.85;;;21.70;64.30;;;;;;5036140;28;20528;-83
2021/09/05 02:34:48;;;;;;;3.78;3.58;;;21.70;64.40;;;;;;5037887;28;20056;-83
2021/09/05 02:37:14;;;;;;;3.25;3.05;;;21.70;64.50;;;;;;5048114;28;20033;-84
2021/09/05 02:39:41;;;;;;;22.10;3.60;;;21.60;64.40;;;;;;5057042;28;20025;-83
2021/09/05 02:42:07;;;;;;;3.65;3.45;;;21.60;65.30;;;;;;5058011;28;20021;-84
2021/09/05 02:44:33;;;;;;;3.47;3.35;;;21.60;64.50;;;;;;5056800;28;20036;-84
2021/09/05 02:46:59;;;;;;;3.78;3.58;;;21.50;64.60;;;;;;5053929;28;20033;-83
2021/09/05 02:49:25;;;;;;;4.88;4.18;;;21.50;64.60;;;;;;5055211;28;20032;-83
2021/09/05 02:51:51;;;;;;;4.18;3.97;;;21.50;64.60;;;;;;5036160;28;20375;-84
2021/09/05 02:54:17;;;;;;;3.95;3.75;;;21.50;64.70;;;;;;5041049;28;20052;-83
2021/09/05 02:56:43;;;;;;;4.50;4.30;;;21.50;64.80;;;;;;5056923;28;20493;-83
2021/09/05 02:59:09;;;;;;;4.38;4.18;;;21.50;64.80;;;;;;5056403;28;20029;-83
2021/09/05 03:01:35;;;;;;;4.30;4.10;;;21.40;64.80;;;;;;5054781;28;20496;-83
2021/09/05 03:04:01;;;;;;;4.68;4.47;;;21.40;64.90;;;;;;5035255;28;20047;-84
2021/09/05 03:06:27;;;;;;;5.03;4.72;;;21.40;65.00;;;;;;5058750;28;20041;-83
2021/09/05 03:08:54;;;;;;;4.95;4.75;;;21.40;65.10;;;;;;5056478;28;20029;-80
2021/09/05 03:11:20;;;;;;;4.20;4.00;;;21.40;65.10;;;;;;5056712;28;20040;-83
2021/09/05 03:13:47;;;;;;;4.63;4.43;;;21.40;65.10;;;;;;5051571;28;20036;-83
2021/09/05 03:16:14;;;;;;;5.03;4.78;;;21.30;65.10;;;;;;5066151;28;20033;-83
2021/09/05 03:18:40;;;;;;;4.65;4.45;;;21.30;65.20;;;;;;5038769;28;20037;-83
2021/09/05 03:21:06;;;;;;;5.00;4.57;;;21.30;65.20;;;;;;5056557;28;20055;-83
2021/09/05 03:23:32;;;;;;;4.75;4.45;;;21.30;65.30;;;;;;5054970;28;20033;-83
2021/09/05 03:25:58;;;;;;;4.45;4.25;;;21.30;65.40;;;;;;5054635;28;20386;-83
2021/09/05 03:28:24;;;;;;;4.80;4.50;;;21.20;65.40;;;;;;5053019;28;20021;-83
2021/09/05 03:30:50;;;;;;;4.85;4.57;;;21.20;65.40;;;;;;5051656;28;20033;-83
2021/09/05 03:33:16;;;;;;;4.22;4.03;;;21.20;65.50;;;;;;5056784;28;20245;-84
2021/09/05 03:35:42;;;;;;;4.50;4.20;;;21.20;65.50;;;;;;5055805;28;20045;-80
2021/09/05 03:38:08;;;;;;;4.00;3.80;;;21.20;65.60;;;;;;5055849;28;20029;-84
2021/09/05 03:40:35;;;;;;;4.07;3.88;;;21.20;65.60;;;;;;5055700;28;20031;-83
2021/09/05 03:43:01;;;;;;;3.88;3.67;;;21.10;65.60;;;;;;5050131;28;20036;-83
2021/09/05 03:45:27;;;;;;;4.30;4.10;;;21.10;65.70;;;;;;5055901;28;20493;-84
2021/09/05 03:47:53;;;;;;;4.25;4.05;;;21.10;65.70;;;;;;5055791;28;20025;-83
2021/09/05 03:50:19;;;;;;;4.18;3.97;;;21.10;65.80;;;;;;5055567;28;20474;-83
2021/09/05 03:52:45;;;;;;;3.78;3.53;;;21.10;65.90;;;;;;5054310;28;20036;-82
2021/09/05 03:55:11;;;;;;;4.22;3.83;;;21.00;65.90;;;;;;5052152;28;20036;-83
2021/09/05 03:57:37;;;;;;;3.45;3.25;;;21.00;66.00;;;;;;5055683;28;20485;-83
2021/09/05 04:00:04;;;;;;;4.03;3.72;;;21.00;66.10;;;;;;5054766;28;20037;-83
2021/09/05 04:02:30;;;;;;;3.65;3.45;;;21.00;66.20;;;;;;5054287;28;20029;-83
2021/09/05 04:04:56;;;;;;;3.28;3.13;;;21.00;66.20;;;;;;5053956;28;20040;-84
2021/09/05 04:07:22;;;;;;;3.55;3.35;;;20.90;66.20;;;;;;5053526;28;20021;-84
2021/09/05 04:12:33;;;;;;;3.92;3.72;;;20.90;66.20;;;;;;5075247;28;20039;-83
2021/09/05 04:14:59;;;;;;;3.63;3.42;;;20.90;66.30;;;;;;5054196;28;20045;-83
2021/09/05 04:17:25;;;;;;;3.50;3.30;;;20.90;66.40;;;;;;5054864;28;20025;-83
2021/09/05 04:19:51;;;;;;;3.80;3.60;;;20.90;66.40;;;;;;5054114;28;20043;-83
2021/09/05 04:22:17;;;;;;;3.53;3.33;;;20.80;66.40;;;;;;5052462;28;20025;-83
2021/09/05 04:24:43;;;;;;;4.35;4.03;;;20.80;66.40;;;;;;5053177;28;20033;-83
2021/09/05 04:27:09;;;;;;;3.38;3.28;;;20.80;66.50;;;;;;5088298;28;20033;-83
2021/09/05 04:29:35;;;;;;;3.33;3.13;;;20.80;66.50;;;;;;5054874;28;20034;-83
2021/09/05 04:32:02;;;;;;;3.80;3.60;;;20.80;66.60;;;;;;5051071;28;20029;-85
2021/09/05 04:34:28;;;;;;;3.90;3.63;;;20.80;66.60;;;;;;5051482;28;20481;-82
2021/09/05 04:36:54;;;;;;;3.25;3.15;;;20.80;66.60;;;;;;5051832;28;20032;-83
2021/09/05 04:39:20;;;;;;;3.63;3.42;;;20.70;66.60;;;;;;5056934;28;20049;-83
2021/09/05 04:41:46;;;;;;;3.47;3.17;;;20.70;66.70;;;;;;5054429;28;20508;-83
2021/09/05 04:44:13;;;;;;;2.90;2.80;;;20.70;66.70;;;;;;5052170;28;20044;-84
2021/09/05 04:46:39;;;;;;;3.65;3.45;;;20.70;66.80;;;;;;5036701;28;20397;-84
2021/09/05 04:49:05;;;;;;;3.53;3.33;;;20.70;66.80;;;;;;5050553;28;20036;-83
2021/09/05 04:51:31;;;;;;;3.50;3.30;;;20.70;66.80;;;;;;5063664;28;20091;-83
2021/09/05 04:53:57;;;;;;;3.20;3.03;;;20.60;66.80;;;;;;5054975;28;20044;-83
2021/09/05 04:56:23;;;;;;;3.38;3.17;;;20.60;66.80;;;;;;5054422;28;20032;-83
2021/09/05 04:58:49;;;;;;;3.60;3.30;;;20.60;66.90;;;;;;5054832;28;20033;-83
2021/09/05 05:01:15;;;;;;;3.85;3.60;;;20.60;66.90;;;;;;5051238;28;20045;-83
2021/09/05 05:03:41;;;;;;;3.00;2.90;;;20.60;66.90;;;;;;5053294;28;20025;-84
2021/09/05 05:06:07;;;;;;;3.20;3.10;;;20.60;66.90;;;;;;5055569;28;20028;-83
2021/09/05 05:08:34;;;;;;;3.10;3.00;;;20.60;67.00;;;;;;5053678;28;20422;-82
2021/09/05 05:11:00;;;;;;;3.55;3.35;;;20.60;67.10;;;;;;5035104;28;20036;-83
2021/09/05 05:13:26;;;;;;;4.22;3.92;;;20.50;67.10;;;;;;5035381;28;20048;-82
2021/09/05 05:15:55;;;;;;;3.67;3.47;;;20.50;67.20;;;;;;5051129;28;20033;-84
2021/09/05 05:18:24;;;;;;;3.28;3.17;;;20.50;67.20;;;;;;5056690;28;20041;-83
2021/09/05 05:20:51;;;;;;;3.30;3.20;;;20.50;67.20;;;;;;5053355;28;20037;-83
2021/09/05 05:23:17;;;;;;;3.65;3.45;;;20.40;67.20;;;;;;5052646;28;20025;-83
2021/09/05 05:25:43;;;;;;;4.00;3.65;;;20.40;67.30;;;;;;5036730;28;20017;-83
2021/09/05 05:28:09;;;;;;;3.53;3.33;;;20.40;67.30;;;;;;5050679;28;22592;-83
2021/09/05 05:30:35;;;;;;;4.30;4.05;;;20.40;67.40;;;;;;5053721;28;20032;-82
2021/09/05 05:33:01;;;;;;;3.75;3.45;;;20.40;67.40;;;;;;5053601;28;20330;-83
2021/09/05 05:35:28;;;;;;;3.88;3.60;;;20.40;67.40;;;;;;5054220;28;20144;-81
2021/09/05 05:37:54;;;;;;;3.35;3.17;;;20.40;67.40;;;;;;5052840;28;20047;-84
2021/09/05 05:40:23;;;;;;;3.63;3.42;;;20.40;67.50;;;;;;5050820;28;20028;-83
2021/09/05 05:42:49;;;;;;;3.45;3.25;;;20.40;67.50;;;;;;5052967;28;20406;-83
2021/09/05 05:45:18;;;;;;;3.58;3.38;;;20.40;67.50;;;;;;5089448;28;20036;-83
2021/09/05 05:47:45;;;;;;;2.95;2.80;;;20.40;67.50;;;;;;5056641;28;20025;-81
2021/09/05 05:50:11;;;;;;;3.42;3.22;;;20.40;67.50;;;;;;5055520;28;20037;-83
2021/09/05 05:52:37;;;;;;;3.75;3.50;;;20.40;67.50;;;;;;5057649;28;20035;-83
2021/09/05 05:55:04;;;;;;;3.17;2.95;;;20.40;67.50;;;;;;5037655;28;20414;-83
2021/09/05 05:57:30;;;;;;;3.90;3.63;;;20.40;67.50;;;;;;5058697;28;20470;-81
2021/09/05 05:59:56;;;;;;;3.28;3.17;;;20.40;67.50;;;;;;5056663;28;20383;-83
2021/09/05 06:02:22;;;;;;;3.30;3.20;;;20.40;67.50;;;;;;5055790;28;20036;-84
2021/09/05 06:04:48;;;;;;;3.45;3.25;;;20.40;67.50;;;;;;5041467;28;20492;-83
2021/09/05 06:07:15;;;;;;;3.22;3.10;;;20.40;67.50;;;;;;5053106;28;20047;-83
2021/09/05 06:09:41;;;;;;;3.42;3.10;;;20.40;67.60;;;;;;5057835;28;20037;-83
2021/09/05 06:12:10;;;;;;;3.35;3.15;;;20.40;67.60;;;;;;5058265;28;20393;-82
2021/09/05 06:14:37;;;;;;;3.67;3.25;;;20.50;67.70;;;;;;5056319;28;20406;-83
2021/09/05 06:17:03;;;;;;;3.28;2.97;;;20.60;67.50;;;;;;5039365;28;20397;-83
2021/09/05 06:19:30;;;;;;;3.38;3.17;;;20.70;67.10;;;;;;5054881;28;20040;-83
2021/09/05 06:21:56;;;;;;;3.30;3.10;;;21.00;66.70;;;;;;5052436;28;20479;-84
2021/09/05 06:24:22;;;;;;;3.65;3.45;;;21.20;66.30;;;;;;5058101;28;20029;-83
2021/09/05 06:26:48;;;;;;;5.00;4.70;;;21.40;65.90;;;;;;5057472;28;20052;-83
2021/09/05 06:29:14;;;;;;;4.10;3.80;;;21.60;65.60;;;;;;5054842;28;20381;-83
2021/09/05 06:31:40;;;;;;;4.55;4.25;;;21.90;65.30;;;;;;5056590;28;20036;-83
2021/09/05 06:34:06;;;;;;;5.32;5.03;;;22.10;65.00;;;;;;5052694;28;20045;-83
2021/09/05 06:36:32;;;;;;;4.28;4.07;;;22.20;64.70;;;;;;5058682;28;20028;-83
2021/09/05 06:38:58;;;;;;;4.47;4.28;;;22.40;64.50;;;;;;5057103;28;20032;-83
2021/09/05 06:41:25;;;;;;;5.80;5.50;;;22.60;64.30;;;;;;5054447;28;20021;-83
2021/09/05 06:43:51;;;;;;;4.60;4.40;;;22.70;64.10;;;;;;5055801;28;20090;-84
2021/09/05 06:46:17;;;;;;;4.95;4.75;;;22.90;64.00;;;;;;5053639;28;20033;-83
2021/09/05 06:48:43;;;;;;;4.43;4.22;;;23.00;63.80;;;;;;5056343;28;20438;-84
2021/09/05 06:51:10;;;;;;;6.47;6.18;;;23.20;63.60;;;;;;5057508;28;20032;-84
2021/09/05 06:53:36;;;;;;;7.05;6.60;;;23.40;63.30;;;;;;5056720;28;20052;-84
2021/09/05 06:56:02;;;;;;;7.22;6.82;;;23.50;63.10;;;;;;5056111;28;20051;-81
2021/09/05 06:58:28;;;;;;;6.63;6.32;;;23.60;62.80;;;;;;5054369;28;20035;-83
2021/09/05 07:00:54;;;;;;;6.68;6.28;;;23.60;62.80;;;;;;5052969;28;20095;-83
2021/09/05 07:03:20;;;;;;;7.07;6.57;;;23.70;62.80;;;;;;5041054;28;20041;-84
2021/09/05 07:05:47;;;;;;;6.95;6.55;;;23.80;62.70;;;;;;5055148;28;20037;-83
2021/09/05 07:08:13;;;;;;;7.95;7.45;;;24.00;62.60;;;;;;5053895;28;20032;-83
2021/09/05 07:10:39;;;;;;;6.93;6.63;;;24.20;62.20;;;;;;5056511;28;20025;-83
2021/09/05 07:13:06;;;;;;;6.20;5.90;;;24.40;61.90;;;;;;5050949;28;20033;-84
2021/09/05 07:15:34;;;;;;;6.30;6.00;;;24.50;61.70;;;;;;5069280;28;20028;-83
2021/09/05 07:18:01;;;;;;;6.18;5.88;;;24.60;61.60;;;;;;5056531;28;20381;-84
2021/09/05 07:20:27;;;;;;;6.57;6.18;;;24.60;61.40;;;;;;5054442;28;20375;-84
2021/09/05 07:22:54;;;;;;;7.43;7.03;;;24.70;61.40;;;;;;5056315;28;20036;-84
2021/09/05 07:25:21;;;;;;;7.65;7.25;;;24.80;61.30;;;;;;5053904;28;20044;-84
2021/09/05 07:27:48;;;;;;;8.27;7.88;;;25.00;61.00;;;;;;5053421;28;20390;-84
2021/09/05 07:30:14;;;;;;;7.82;7.32;;;25.10;60.70;;;;;;5094189;28;20025;-82
2021/09/05 07:32:41;;;;;;;6.55;6.25;;;25.20;60.50;;;;;;5058809;28;20039;-84
2021/09/05 07:35:07;;;;;;;7.13;6.82;;;25.30;60.50;;;;;;5055511;28;20084;-84
2021/09/05 07:37:33;;;;;;;6.88;6.57;;;25.30;60.50;;;;;;5055426;28;20020;-84
2021/09/05 07:40:00;;;;;;;7.38;7.00;;;25.30;60.40;;;;;;5050786;28;20032;-84
2021/09/05 07:42:26;;;;;;;8.43;8.02;;;25.50;60.30;;;;;;5057846;28;20048;-82
2021/09/05 07:44:52;;;;;;;9.45;8.90;;;25.70;60.00;;;;;;5055865;28;20036;-84
2021/09/05 07:47:18;;;;;;;9.02;8.63;;;25.80;59.60;;;;;;5054036;28;20029;-84
2021/09/05 07:49:44;;;;;;;11.32;10.77;;;26.00;59.60;;;;;;5054198;28;20501;-84
2021/09/05 07:52:11;;;;;;;10.85;10.25;;;26.10;59.40;;;;;;5052026;28;20039;-84
2021/09/05 07:54:37;;;;;;;12.23;11.63;;;26.20;59.30;;;;;;5056337;28;20394;-83
2021/09/05 07:57:03;;;;;;;11.65;11.05;;;26.30;59.20;;;;;;5054672;28;20025;-84
2021/09/05 07:59:29;;;;;;;11.88;11.32;;;26.60;59.00;;;;;;5052822;28;20036;-82
2021/09/05 08:01:55;;;;;;;12.82;12.23;;;26.80;58.60;;;;;;5055024;28;20030;-85
2021/09/05 08:04:21;;;;;;;13.32;12.63;;;27.00;58.30;;;;;;5052955;28;20025;-85
2021/09/05 08:06:47;;;;;;;13.35;12.73;;;27.30;58.10;;;;;;5052962;28;20037;-84
2021/09/05 08:09:13;;;;;;;12.88;12.27;;;27.50;57.80;;;;;;5057000;28;20025;-85
2021/09/05 08:11:39;;;;;;;11.30;10.80;;;27.70;57.50;;;;;;5055263;28;20040;-85
2021/09/05 08:14:06;;;;;;;12.00;11.25;;;27.90;57.30;;;;;;5055448;28;20041;-83
2021/09/05 08:16:33;;;;;;;10.93;10.23;;;28.00;57.10;;;;;;5054131;28;20048;-85
2021/09/05 08:18:59;;;;;;;11.07;10.50;;;28.10;57.10;;;;;;5051145;28;20025;-85
2021/09/05 08:21:25;;;;;;;11.70;11.10;;;28.10;57.00;;;;;;5039571;28;20029;-85
2021/09/05 08:23:51;;;;;;;12.25;11.65;;;28.10;57.00;;;;;;5055265;28;20029;-84
2021/09/05 08:26:19;;;;;;;13.18;12.48;;;28.30;57.00;;;;;;5053992;28;20048;-84
2021/09/05 08:28:45;;;;;;;14.32;13.63;;;28.40;56.80;;;;;;5055049;28;20024;-85
2021/09/05 08:31:11;;;;;;;14.55;13.65;;;28.60;56.60;;;;;;5033336;28;20469;-85
2021/09/05 08:33:37;;;;;;;14.27;13.52;;;28.80;56.40;;;;;;5055147;28;20195;-85
2021/09/05 08:36:04;;;;;;;14.02;13.32;;;28.80;56.20;;;;;;5054065;28;20398;-86
2021/09/05 08:38:30;;;;;;;15.48;14.55;;;28.90;56.10;;;;;;5052353;28;20055;-85
2021/09/05 08:40:56;;;;;;;13.82;13.13;;;29.00;56.10;;;;;;5054897;28;20027;-86
2021/09/05 08:43:22;;;;;;;15.43;14.63;;;29.00;56.10;;;;;;5052921;28;20032;-85
2021/09/05 08:45:49;;;;;;;16.00;14.80;;;29.10;55.90;;;;;;5052331;28;20033;-86
2021/09/05 08:48:18;;;;;;;13.82;13.18;;;29.20;55.80;;;;;;5071828;28;20040;-84
2021/09/05 08:50:45;;;;;;;14.55;13.57;;;29.20;55.60;;;;;;5053386;28;20406;-85
2021/09/05 08:53:11;;;;;;;12.75;12.15;;;29.00;55.70;;;;;;5053583;28;20036;-85
2021/09/05 08:55:38;;;;;;;14.95;14.25;;;28.90;56.40;;;;;;5053645;28;20516;-87
2021/09/05 08:58:04;;;;;;;14.05;13.43;;;28.80;55.90;;;;;;5032325;28;20043;-86
2021/09/05 09:00:30;;;;;;;15.32;14.07;;;28.80;55.80;;;;;;5056050;28;20397;-86
2021/09/05 09:02:56;;;;;;;13.07;12.45;;;28.80;55.60;;;;;;5053063;28;20037;-83
2021/09/05 09:05:50;;;;;;;14.52;13.82;;;28.80;55.60;;;;;;5052242;28;20481;-85
2021/09/05 09:08:16;;;;;;;13.95;13.25;;;28.80;55.70;;;;;;5051134;28;20033;-85
2021/09/05 09:10:56;;;;;;;14.55;13.85;;;28.80;55.70;;;;;;5036905;28;20035;-86
2021/09/05 09:13:22;;;;;;;13.18;12.57;;;28.90;55.40;;;;;;5052488;28;20025;-86
2021/09/05 09:15:48;;;;;;;11.80;11.20;;;29.20;55.20;;;;;;5052244;28;20037;-86
2021/09/05 09:18:14;;;;;;;12.20;11.50;;;29.30;54.80;;;;;;5056066;28;20462;-86
2021/09/05 09:20:41;;;;;;;13.65;13.05;;;29.40;54.50;;;;;;5057677;28;20044;-86
2021/09/05 09:23:12;;;;;;;15.77;15.07;;;29.50;54.30;;;;;;5057359;28;20029;-86
2021/09/05 09:25:48;;;;;;;16.10;15.30;;;29.60;54.10;;;;;;5058828;28;20520;-86
2021/09/05 09:28:33;;;;;;;17.13;16.17;;;29.70;54.00;;;;;;5039688;28;20036;-85
2021/09/05 09:31:13;;;;;;;17.55;16.65;;;29.80;53.70;;;;;;5053808;28;20040;-87
2021/09/05 09:33:39;;;;;;;21.75;20.73;;;30.00;53.50;;;;;;5067015;28;20052;-85
2021/09/05 09:36:07;;;;;;;19.42;18.52;;;30.00;53.40;;;;;;5057789;28;20410;-86
2021/09/05 09:38:33;;;;;;;23.45;22.35;;;30.10;53.20;;;;;;5058488;28;20049;-85
2021/09/05 09:41:08;;;;;;;19.42;18.48;;;30.20;52.90;;;;;;5058359;28;20029;-86
2021/09/05 09:43:37;;;;;;;21.42;20.42;;;30.10;53.30;;;;;;5056567;28;20040;-85
2021/09/05 09:46:13;;;;;;;17.98;17.13;;;30.00;52.80;;;;;;5019248;28;20403;-85
2021/09/05 09:48:48;;;;;;;21.55;20.27;;;29.90;52.80;;;;;;5066815;28;20028;-86
2021/09/05 09:51:14;;;;;;;23.50;22.40;;;30.00;52.60;;;;;;5058558;28;20381;-87
2021/09/05 09:53:40;;;;;;;23.65;22.52;;;30.00;52.60;;;;;;5056679;28;20059;-85
2021/09/05 09:56:11;;;;;;;24.30;23.20;;;30.00;52.60;;;;;;5055317;28;20025;-85
2021/09/05 09:58:37;;;;;;;;;;;30.10;52.50;;;;;;5056766;28;20025;-87
2021/09/05 10:01:03;;;;;;;23.17;22.10;;;30.20;52.20;;;;;;5051708;28;19967;-86
2021/09/05 10:03:30;;;;;;;23.27;22.13;;;30.30;52.30;;;;;;5059802;28;20017;-86
2021/09/05 10:05:57;;;;;;;21.27;20.27;;;30.30;52.00;;;;;;5039957;28;20095;-82
2021/09/05 10:08:23;;;;;;;21.77;20.73;;;30.40;51.90;;;;;;5040107;28;20025;-85
2021/09/05 10:10:49;;;;;;;16.23;15.43;;;30.50;51.80;;;;;;5041379;28;20041;-86
2021/09/05 10:13:15;;;;;;;18.05;16.38;;;30.60;51.60;;;;;;5036451;28;20036;-86
2021/09/05 10:15:42;;;;;;;14.95;14.25;;;30.60;51.50;;;;;;5023351;28;20029;-86
2021/09/05 10:18:08;;;;;;;14.48;13.77;;;30.60;51.40;;;;;;5040873;28;20037;-86
2021/09/05 10:20:34;;;;;;;14.60;13.90;;;30.60;51.20;;;;;;5040976;28;20033;-86
2021/09/05 10:23:04;;;;;;;14.23;13.52;;;30.60;51.10;;;;;;5054759;28;20037;-85
2021/09/05 10:25:30;;;;;;;13.88;12.93;;;30.50;51.20;;;;;;5040437;28;20052;-86
2021/09/05 10:27:57;;;;;;;13.55;12.93;;;30.70;51.00;;;;;;5053743;28;20037;-86
2021/09/05 10:30:23;;;;;;;12.38;11.77;;;30.90;50.80;;;;;;5058166;28;20044;-86
2021/09/05 10:32:56;;;;;;;11.07;10.57;;;31.20;50.50;;;;;;5055982;28;20032;-86
2021/09/05 10:35:25;;;;;;;10.35;9.85;;;31.40;50.20;;;;;;5055691;28;20040;-86
2021/09/05 10:38:26;;;;;;;11.35;10.85;;;31.60;50.00;;;;;;5057228;28;20377;-86
2021/09/05 10:41:14;;;;;;;10.40;9.90;;;31.60;49.60;;;;;;5057104;28;20035;-86
2021/09/05 10:43:52;;;;;;;11.90;11.30;;;31.50;49.80;;;;;;5042986;28;20033;-86
2021/09/05 10:46:29;;;;;;;9.98;9.48;;;31.40;49.80;;;;;;5054068;28;20326;-85
2021/09/05 10:48:59;;;;;;;10.70;10.20;;;31.50;49.90;;;;;;5052544;28;20021;-86
2021/09/05 10:51:29;;;;;;;11.15;10.65;;;31.50;49.80;;;;;;5057701;28;20036;-86
2021/09/05 10:54:06;;;;;;;10.93;10.43;;;31.60;49.70;;;;;;5056868;28;20033;-86
2021/09/05 10:56:34;;;;;;;10.57;10.07;;;31.50;49.60;;;;;;5055827;28;20032;-86
2021/09/05 10:59:00;;;;;;;10.45;9.95;;;31.30;49.60;;;;;;5055094;28;20397;-86
2021/09/05 11:01:35;;;;;;;8.75;8.35;;;31.10;49.70;;;;;;5053253;28;20363;-85
2021/09/05 11:04:14;;;;;;;12.45;11.85;;;31.00;49.80;;;;;;5052641;28;20021;-85
2021/09/05 11:06:47;;;;;;;10.98;10.43;;;31.10;49.60;;;;;;5066497;28;20500;-86
2021/09/05 11:09:25;;;;;;;12.20;11.60;;;31.00;49.40;;;;;;5058141;28;20025;-86
2021/09/05 11:12:25;;;;;;;11.18;10.68;;;31.10;49.50;;;;;;5056123;28;20029;-86
2021/09/05 11:14:51;;;;;;;10.45;9.95;;;31.10;49.30;;;;;;5054683;28;20044;-85
2021/09/05 11:17:19;;;;;;;11.45;10.88;;;31.10;49.20;;;;;;5054824;28;20025;-86
2021/09/05 11:19:49;;;;;;;11.40;10.77;;;31.20;49.20;;;;;;5056310;28;20470;-88
2021/09/05 11:22:16;;;;;;;11.35;10.85;;;31.30;48.90;;;;;;5052178;28;20044;-85
2021/09/05 11:24:43;;;;;;;10.50;10.00;;;31.40;48.80;;;;;;5055107;28;20039;-85
2021/09/05 11:27:11;;;;;;;10.65;10.05;;;31.40;48.70;;;;;;5057415;28;20485;-85
2021/09/05 11:29:37;;;;;;;9.38;8.98;;;31.40;48.70;;;;;;5055414;28;20386;-85
2021/09/05 11:32:08;;;;;;;10.77;10.27;;;31.40;48.50;;;;;;5038210;28;20032;-86
2021/09/05 11:34:34;;;;;;;10.32;9.82;;;31.50;48.40;;;;;;5037740;28;20078;-86
2021/09/05 11:37:00;;;;;;;9.85;9.35;;;31.70;48.30;;;;;;5034519;28;20044;-85
2021/09/05 11:39:26;;;;;;;8.82;8.43;;;31.60;48.20;;;;;;5040490;28;20047;-87
2021/09/05 11:41:53;;;;;;;10.20;9.70;;;31.60;48.20;;;;;;5054049;28;20036;-86
2021/09/05 11:44:34;;;;;;;9.40;8.90;;;31.30;48.30;;;;;;5055922;28;20482;-85
2021/09/05 11:47:10;;;;;;;9.82;9.32;;;31.10;48.50;;;;;;5038693;28;20037;-85
2021/09/05 11:49:53;;;;;;;10.45;9.95;;;30.90;48.70;;;;;;5039805;28;20044;-85
2021/09/05 11:52:20;;;;;;;10.38;9.88;;;31.00;48.60;;;;;;5037747;28;20025;-85
2021/09/05 11:54:48;;;;;;;9.10;8.60;;;31.10;48.30;;;;;;5053945;28;20470;-84
2021/09/05 11:57:15;;;;;;;8.93;8.52;;;31.00;48.20;;;;;;5072699;28;20029;-86
2021/09/05 11:59:41;;;;;;;9.40;8.90;;;31.00;48.30;;;;;;5054163;28;20040;-85
2021/09/05 12:02:07;;;;;;;9.35;8.93;;;30.90;48.30;;;;;;5055170;28;20497;-85
2021/09/05 12:04:36;;;;;;;9.88;9.40;;;31.00;48.30;;;;;;5054923;28;20025;-86
2021/09/05 12:07:03;;;;;;;8.85;8.43;;;31.00;48.10;;;;;;5017779;28;20047;-85
2021/09/05 12:09:30;;;;;;;9.07;8.68;;;31.00;48.10;;;;;;5055874;28;20033;-87
2021/09/05 12:12:01;;;;;;;9.43;9.02;;;31.10;47.90;;;;;;5054248;28;20052;-85
2021/09/05 12:14:34;;;;;;;9.82;9.23;;;31.20;47.70;;;;;;5055387;28;20405;-85
2021/09/05 12:17:41;;;;;;;9.48;9.00;;;31.20;47.40;;;;;;5054918;28;20474;-86
2021/09/05 12:20:09;;;;;;;10.25;9.77;;;31.20;47.30;;;;;;5049799;28;20056;-85
2021/09/05 12:22:55;;;;;;;9.90;9.40;;;31.30;47.30;;;;;;5054000;28;20036;-86
2021/09/05 12:25:39;;;;;;;10.15;9.65;;;31.30;47.10;;;;;;5039151;28;20020;-85
2021/09/05 12:28:07;;;;;;;9.88;9.38;;;31.20;47.00;;;;;;5035366;28;20494;-86
2021/09/05 12:31:07;;;;;;;9.18;8.68;;;31.30;47.10;;;;;;5063039;28;20405;-86
2021/09/05 12:33:36;;;;;;;10.00;9.50;;;31.30;47.10;;;;;;5047050;28;20040;-84
2021/09/05 12:36:05;;;;;;;9.43;8.73;;;31.30;46.90;;;;;;5055691;28;20060;-86
2021/09/05 12:38:32;;;;;;;8.45;8.05;;;31.30;46.90;;;;;;5054711;28;20025;-85
2021/09/05 12:41:06;;;;;;;8.32;7.93;;;31.40;47.00;;;;;;5053157;28;20048;-83
2021/09/05 12:44:05;;;;;;;9.15;8.75;;;31.40;46.80;;;;;;5053075;28;20021;-85
2021/09/05 12:46:38;;;;;;;8.93;8.52;;;31.70;46.80;;;;;;5039497;28;20524;-85